sensor_id;sensor_type;location;lat;lon;timestamp;pressure;altitude;pressure_sealevel;temperature;humidity
6829;BME280;17930;48.592;8.868;2023-02-18T00:00:27;97740.22;;;11.15;100.00
6829;BME280;17930;48.592;8.868;2023-02-18T00:02:54;97740.50;;;11.18;100.00
6829;BME280;17930;48.592;8.868;2023-02-18T00:05:21;97742.31;;;11.18;100.00
6829;BME280;17930;48.592;8.868;2023-02-18T00:07:49;97739.22;;;11.21;100.00
6829;BME280;17930;48.592;8.868;2023-02-18T00:10:16;97732.34;;;11.10;100.00
6829;BME280;17930;48.592;8.868;2023-02-18T00:12:44;97731.56;;;11.09;100.00
6829;BME280;17930;48.592;8.868;2023-02-18T00:15:10;97725.06;;;11.12;100.00
6829;BME280;17930;48.592;8.868;2023-02-18T00:17:37;97734.38;;;11.03;100.00
6829;BME280;17930;48.592;8.868;2023-02-18T00:20:06;97726.03;;;11.06;100.00
6829;BME280;17930;48.592;8.868;2023-02-18T00:22:33;97709.72;;;10.89;100.00
6829;BME280;17930;48.592;8.868;2023-02-18T00:25:01;97712.59;;;10.87;100.00
6829;BME280;17930;48.592;8.868;2023-02-18T00:27:28;97722.78;;;10.89;100.00
6829;BME280;17930;48.592;8.868;2023-02-18T00:29:54;97718.59;;;10.88;100.00
6829;BME280;17930;48.592;8.868;2023-02-18T00:32:21;97718.69;;;10.98;100.00
6829;BME280;17930;48.592;8.868;2023-02-18T00:34:48;97718.59;;;10.88;100.00
6829;BME280;17930;48.592;8.868;2023-02-18T00:37:15;97724.81;;;10.82;100.00
6829;BME280;17930;48.592;8.868;2023-02-18T00:39:41;97721.97;;;10.83;100.00
6829;BME280;17930;48.592;8.868;2023-02-18T00:42:10;97726.38;;;10.83;100.00
6829;BME280;17930;48.592;8.868;2023-02-18T00:44:37;97726.69;;;10.86;100.00
6829;BME280;17930;48.592;8.868;2023-02-18T00:47:04;97717.06;;;10.92;100.00
6829;BME280;17930;48.592;8.868;2023-02-18T00:49:30;97715.53;;;10.96;100.00
6829;BME280;17930;48.592;8.868;2023-02-18T00:51:57;97702.63;;;10.84;100.00
6829;BME280;17930;48.592;8.868;2023-02-18T00:54:24;97711.13;;;10.65;100.00
6829;BME280;17930;48.592;8.868;2023-02-18T00:56:51;97704.41;;;10.79;100.00
6829;BME280;17930;48.592;8.868;2023-02-18T00:59:19;97704.41;;;10.79;100.00
6829;BME280;17930;48.592;8.868;2023-02-18T01:01:46;97704.25;;;10.59;100.00
6829;BME280;17930;48.592;8.868;2023-02-18T01:04:13;97701.31;;;10.51;100.00
6829;BME280;17930;48.592;8.868;2023-02-18T01:06:39;97703.66;;;10.52;100.00
6829;BME280;17930;48.592;8.868;2023-02-18T01:09:06;97695.31;;;10.50;100.00
6829;BME280;17930;48.592;8.868;2023-02-18T01:11:33;97702.97;;;10.62;100.00
6829;BME280;17930;48.592;8.868;2023-02-18T01:14:00;97708.59;;;10.75;100.00
6829;BME280;17930;48.592;8.868;2023-02-18T01:16:28;97698.72;;;10.82;100.00
6829;BME280;17930;48.592;8.868;2023-02-18T01:18:55;97707.16;;;10.94;100.00
6829;BME280;17930;48.592;8.868;2023-02-18T01:21:22;97700.88;;;10.90;100.00
6829;BME280;17930;48.592;8.868;2023-02-18T01:23:49;97695.72;;;11.00;100.00
6829;BME280;17930;48.592;8.868;2023-02-18T01:26:15;97691.31;;;11.00;100.00
6829;BME280;17930;48.592;8.868;2023-02-18T01:28:42;97693.94;;;11.05;100.00
6829;BME280;17930;48.592;8.868;2023-02-18T01:31:11;97688.97;;;11.09;100.00
6829;BME280;17930;48.592;8.868;2023-02-18T01:33:40;97683.75;;;11.09;100.00
6829;BME280;17930;48.592;8.868;2023-02-18T01:36:08;97680.59;;;11.02;100.00
6829;BME280;17930;48.592;8.868;2023-02-18T01:38:35;97681.56;;;10.91;100.00
6829;BME280;17930;48.592;8.868;2023-02-18T01:41:03;97681.50;;;10.81;100.00
6829;BME280;17930;48.592;8.868;2023-02-18T01:43:29;97683.47;;;10.69;100.00
6829;BME280;17930;48.592;8.868;2023-02-18T01:46:05;97688.59;;;10.59;100.00
6829;BME280;17930;48.592;8.868;2023-02-18T01:48:35;97683.69;;;10.36;100.00
6829;BME280;17930;48.592;8.868;2023-02-18T01:51:09;97684.28;;;10.43;100.00
6829;BME280;17930;48.592;8.868;2023-02-18T01:53:43;97676.97;;;10.40;100.00
6829;BME280;17930;48.592;8.868;2023-02-18T01:56:15;97675.44;;;10.44;100.00
6829;BME280;17930;48.592;8.868;2023-02-18T01:58:45;97679.59;;;10.14;100.00
6829;BME280;17930;48.592;8.868;2023-02-18T02:01:12;97684.31;;;10.17;100.00
6829;BME280;17930;48.592;8.868;2023-02-18T02:03:39;97686.34;;;10.15;100.00
6829;BME280;17930;48.592;8.868;2023-02-18T02:06:14;97688.94;;;9.89;100.00
6829;BME280;17930;48.592;8.868;2023-02-18T02:08:44;97679.34;;;9.94;100.00
6829;BME280;17930;48.592;8.868;2023-02-18T02:11:22;97678.44;;;9.84;100.00
6829;BME280;17930;48.592;8.868;2023-02-18T02:14:06;97677.81;;;9.77;100.00
6829;BME280;17930;48.592;8.868;2023-02-18T02:16:42;97673.72;;;9.81;100.00
6829;BME280;17930;48.592;8.868;2023-02-18T02:19:38;97661.19;;;9.78;100.00
6829;BME280;17930;48.592;8.868;2023-02-18T02:22:29;97663.00;;;9.77;100.00
6829;BME280;17930;48.592;8.868;2023-02-18T02:25:08;97661.19;;;9.78;100.00
6829;BME280;17930;48.592;8.868;2023-02-18T02:27:56;97670.09;;;9.82;100.00
6829;BME280;17930;48.592;8.868;2023-02-18T02:30:43;97672.69;;;9.82;100.00
6829;BME280;17930;48.592;8.868;2023-02-18T02:33:35;97668.00;;;9.84;100.00
6829;BME280;17930;48.592;8.868;2023-02-18T02:36:12;97661.34;;;10.14;100.00
6829;BME280;17930;48.592;8.868;2023-02-18T02:38:45;97659.44;;;10.10;100.00
6829;BME280;17930;48.592;8.868;2023-02-18T02:41:26;97668.22;;;9.99;100.00
6829;BME280;17930;48.592;8.868;2023-02-18T02:44:04;97668.31;;;9.87;100.00
6829;BME280;17930;48.592;8.868;2023-02-18T02:46:38;97646.16;;;9.85;100.00
6829;BME280;17930;48.592;8.868;2023-02-18T02:49:14;97654.09;;;9.95;100.00
6829;BME280;17930;48.592;8.868;2023-02-18T02:51:53;97642.88;;;9.94;100.00
6829;BME280;17930;48.592;8.868;2023-02-18T02:54:24;97652.69;;;9.87;100.00
6829;BME280;17930;48.592;8.868;2023-02-18T02:57:04;97646.06;;;9.80;100.00
6829;BME280;17930;48.592;8.868;2023-02-18T02:59:31;97648.16;;;9.78;100.00
6829;BME280;17930;48.592;8.868;2023-02-18T03:02:10;97647.13;;;9.79;100.00
6829;BME280;17930;48.592;8.868;2023-02-18T03:04:56;97649.84;;;9.89;100.00
6829;BME280;17930;48.592;8.868;2023-02-18T03:07:42;97652.09;;;9.80;100.00
6829;BME280;17930;48.592;8.868;2023-02-18T03:13:10;97651.78;;;9.77;100.00
6829;BME280;17930;48.592;8.868;2023-02-18T03:15:48;97648.16;;;9.78;100.00
6829;BME280;17930;48.592;8.868;2023-02-18T03:18:21;97647.63;;;9.76;100.00
6829;BME280;17930;48.592;8.868;2023-02-18T03:20:54;97640.69;;;9.86;100.00
6829;BME280;17930;48.592;8.868;2023-02-18T03:23:26;97644.06;;;9.87;100.00
6829;BME280;17930;48.592;8.868;2023-02-18T03:25:55;97644.03;;;9.82;100.00
6829;BME280;17930;48.592;8.868;2023-02-18T03:28:25;97628.16;;;9.83;100.00
6829;BME280;17930;48.592;8.868;2023-02-18T03:30:59;97622.03;;;9.73;100.00
6829;BME280;17930;48.592;8.868;2023-02-18T03:33:31;97619.31;;;9.63;100.00
6829;BME280;17930;48.592;8.868;2023-02-18T03:36:01;97611.34;;;9.48;100.00
6829;BME280;17930;48.592;8.868;2023-02-18T03:41:04;97613.72;;;9.28;100.00
6829;BME280;17930;48.592;8.868;2023-02-18T03:43:32;97600.50;;;9.14;100.00
6829;BME280;17930;48.592;8.868;2023-02-18T03:46:00;97597.84;;;9.09;100.00
6829;BME280;17930;48.592;8.868;2023-02-18T03:48:28;97605.66;;;9.09;100.00
6829;BME280;17930;48.592;8.868;2023-02-18T03:50:54;97599.81;;;9.02;100.00
6829;BME280;17930;48.592;8.868;2023-02-18T03:53:21;97604.81;;;8.87;100.00
6829;BME280;17930;48.592;8.868;2023-02-18T03:55:48;97594.72;;;8.90;100.00
6829;BME280;17930;48.592;8.868;2023-02-18T03:58:16;97596.25;;;8.70;100.00
6829;BME280;17930;48.592;8.868;2023-02-18T04:00:43;97603.50;;;8.68;100.00
6829;BME280;17930;48.592;8.868;2023-02-18T04:03:10;97595.78;;;8.73;100.00
6829;BME280;17930;48.592;8.868;2023-02-18T04:05:36;97604.06;;;8.54;100.00
6829;BME280;17930;48.592;8.868;2023-02-18T04:08:03;97607.28;;;8.44;100.00
6829;BME280;17930;48.592;8.868;2023-02-18T04:10:30;97610.84;;;8.38;100.00
6829;BME280;17930;48.592;8.868;2023-02-18T04:12:58;97608.56;;;8.25;100.00
6829;BME280;17930;48.592;8.868;2023-02-18T04:15:26;97613.28;;;8.28;100.00
6829;BME280;17930;48.592;8.868;2023-02-18T04:17:54;97606.38;;;8.34;100.00
6829;BME280;17930;48.592;8.868;2023-02-18T04:20:21;97604.31;;;8.36;100.00
6829;BME280;17930;48.592;8.868;2023-02-18T04:22:48;97605.13;;;8.36;100.00
6829;BME280;17930;48.592;8.868;2023-02-18T04:25:14;97605.25;;;8.30;100.00
6829;BME280;17930;48.592;8.868;2023-02-18T04:27:41;97599.50;;;8.28;100.00
6829;BME280;17930;48.592;8.868;2023-02-18T04:30:09;97602.59;;;8.25;100.00
6829;BME280;17930;48.592;8.868;2023-02-18T04:32:37;97600.38;;;8.33;100.00
6829;BME280;17930;48.592;8.868;2023-02-18T04:35:04;97599.59;;;8.33;100.00
6829;BME280;17930;48.592;8.868;2023-02-18T04:37:31;97602.75;;;8.35;100.00
6829;BME280;17930;48.592;8.868;2023-02-18T04:39:58;97601.00;;;8.40;100.00
6829;BME280;17930;48.592;8.868;2023-02-18T04:42:25;97610.13;;;8.43;100.00
6829;BME280;17930;48.592;8.868;2023-02-18T04:44:51;97601.63;;;8.47;100.00
6829;BME280;17930;48.592;8.868;2023-02-18T04:47:18;97596.75;;;8.51;100.00
6829;BME280;17930;48.592;8.868;2023-02-18T04:49:46;97594.41;;;8.49;100.00
6829;BME280;17930;48.592;8.868;2023-02-18T04:52:13;97597.81;;;8.71;100.00
6829;BME280;17930;48.592;8.868;2023-02-18T04:54:40;97606.50;;;8.60;100.00
6829;BME280;17930;48.592;8.868;2023-02-18T04:57:07;97590.91;;;8.60;100.00
6829;BME280;17930;48.592;8.868;2023-02-18T04:59:33;97595.31;;;8.76;100.00
6829;BME280;17930;48.592;8.868;2023-02-18T05:02:00;97590.31;;;8.53;100.00
6829;BME280;17930;48.592;8.868;2023-02-18T05:04:27;97597.38;;;8.58;100.00
6829;BME280;17930;48.592;8.868;2023-02-18T05:06:55;97591.53;;;8.67;100.00
6829;BME280;17930;48.592;8.868;2023-02-18T05:09:22;97582.41;;;8.65;100.00
6829;BME280;17930;48.592;8.868;2023-02-18T05:11:49;97593.16;;;8.89;100.00
6829;BME280;17930;48.592;8.868;2023-02-18T05:14:16;97589.56;;;9.12;100.00
6829;BME280;17930;48.592;8.868;2023-02-18T05:16:43;97587.97;;;9.11;100.00
6829;BME280;17930;48.592;8.868;2023-02-18T05:19:12;97582.75;;;9.11;100.00
6829;BME280;17930;48.592;8.868;2023-02-18T05:21:39;97585.81;;;9.03;100.00
6829;BME280;17930;48.592;8.868;2023-02-18T05:24:08;97585.94;;;9.13;100.00
6829;BME280;17930;48.592;8.868;2023-02-18T05:26:35;97576.47;;;9.07;100.00
6829;BME280;17930;48.592;8.868;2023-02-18T05:29:02;97587.56;;;9.18;100.00
6829;BME280;17930;48.592;8.868;2023-02-18T05:31:29;97574.34;;;9.04;100.00
6829;BME280;17930;48.592;8.868;2023-02-18T05:33:55;97573.44;;;8.93;100.00
6829;BME280;17930;48.592;8.868;2023-02-18T05:36:22;97582.97;;;8.88;100.00
6829;BME280;17930;48.592;8.868;2023-02-18T05:38:50;97573.91;;;8.90;100.00
6829;BME280;17930;48.592;8.868;2023-02-18T05:41:18;97582.50;;;8.91;100.00
6829;BME280;17930;48.592;8.868;2023-02-18T05:43:45;97583.31;;;8.91;100.00
6829;BME280;17930;48.592;8.868;2023-02-18T05:46:29;97586.28;;;9.00;100.00
6829;BME280;17930;48.592;8.868;2023-02-18T05:48:56;97589.91;;;8.99;100.00
6829;BME280;17930;48.592;8.868;2023-02-18T05:51:23;97591.53;;;9.26;100.00
6829;BME280;17930;48.592;8.868;2023-02-18T05:53:49;97583.44;;;9.22;100.00
6829;BME280;17930;48.592;8.868;2023-02-18T05:56:18;97581.63;;;9.23;100.00
6829;BME280;17930;48.592;8.868;2023-02-18T05:58:44;97578.53;;;9.26;100.00
6829;BME280;17930;48.592;8.868;2023-02-18T06:01:11;97570.44;;;9.22;100.00
6829;BME280;17930;48.592;8.868;2023-02-18T06:03:38;97578.66;;;9.15;100.00
6829;BME280;17930;48.592;8.868;2023-02-18T06:06:06;97570.81;;;9.10;100.00
6829;BME280;17930;48.592;8.868;2023-02-18T06:08:33;97574.91;;;9.06;100.00
6829;BME280;17930;48.592;8.868;2023-02-18T06:11:00;97574.28;;;8.99;100.00
6829;BME280;17930;48.592;8.868;2023-02-18T06:13:28;97577.38;;;8.96;100.00
6829;BME280;17930;48.592;8.868;2023-02-18T06:15:55;97576.66;;;9.00;100.00
6829;BME280;17930;48.592;8.868;2023-02-18T06:18:21;97580.59;;;9.03;100.00
6829;BME280;17930;48.592;8.868;2023-02-18T06:20:49;97568.25;;;9.15;100.00
6829;BME280;17930;48.592;8.868;2023-02-18T06:23:16;97573.09;;;9.27;100.00
6829;BME280;17930;48.592;8.868;2023-02-18T06:25:43;97577.03;;;9.30;100.00
6829;BME280;17930;48.592;8.868;2023-02-18T06:28:09;97568.19;;;9.31;100.00
6829;BME280;17930;48.592;8.868;2023-02-18T06:30:37;97563.34;;;9.39;100.00
6829;BME280;17930;48.592;8.868;2023-02-18T06:33:04;97557.59;;;9.37;100.00
6829;BME280;17930;48.592;8.868;2023-02-18T06:35:31;97566.72;;;9.40;100.00
6829;BME280;17930;48.592;8.868;2023-02-18T06:37:57;97558.88;;;9.61;100.00
6829;BME280;17930;48.592;8.868;2023-02-18T06:40:24;97560.25;;;9.68;100.00
6829;BME280;17930;48.592;8.868;2023-02-18T06:42:52;97560.94;;;9.85;100.00
6829;BME280;17930;48.592;8.868;2023-02-18T06:45:19;97564.28;;;9.81;100.00
6829;BME280;17930;48.592;8.868;2023-02-18T06:47:47;97560.66;;;9.82;100.00
6829;BME280;17930;48.592;8.868;2023-02-18T06:50:14;97554.22;;;10.16;100.00
6829;BME280;17930;48.592;8.868;2023-02-18T06:52:40;97552.59;;;10.10;100.00
6829;BME280;17930;48.592;8.868;2023-02-18T06:55:07;97553.91;;;10.07;100.00
6829;BME280;17930;48.592;8.868;2023-02-18T06:57:34;97557.78;;;10.05;100.00
6829;BME280;17930;48.592;8.868;2023-02-18T07:00:02;97565.63;;;10.10;100.00
6829;BME280;17930;48.592;8.868;2023-02-18T07:02:29;97559.88;;;10.08;100.00
6829;BME280;17930;48.592;8.868;2023-02-18T07:04:57;97574.53;;;10.14;100.00
6829;BME280;17930;48.592;8.868;2023-02-18T07:07:24;97571.47;;;10.22;100.00
6829;BME280;17930;48.592;8.868;2023-02-18T07:09:51;97570.41;;;10.18;100.00
6829;BME280;17930;48.592;8.868;2023-02-18T07:12:17;97571.00;;;10.29;100.00
6829;BME280;17930;48.592;8.868;2023-02-18T07:14:44;97568.47;;;10.39;100.00
6829;BME280;17930;48.592;8.868;2023-02-18T07:17:11;97570.56;;;10.37;100.00
6829;BME280;17930;48.592;8.868;2023-02-18T07:19:38;97573.69;;;10.39;100.00
6829;BME280;17930;48.592;8.868;2023-02-18T07:22:06;97569.34;;;10.50;100.00
6829;BME280;17930;48.592;8.868;2023-02-18T07:24:33;97576.41;;;10.54;100.00
6829;BME280;17930;48.592;8.868;2023-02-18T07:27:00;97574.38;;;10.61;100.00
6829;BME280;17930;48.592;8.868;2023-02-18T07:29:27;97577.19;;;10.55;100.00
6829;BME280;17930;48.592;8.868;2023-02-18T07:31:54;97563.91;;;10.56;100.00
6829;BME280;17930;48.592;8.868;2023-02-18T07:34:21;97573.81;;;10.59;100.00
6829;BME280;17930;48.592;8.868;2023-02-18T07:36:48;97568.41;;;10.66;100.00
6829;BME280;17930;48.592;8.868;2023-02-18T07:39:16;97565.53;;;10.62;100.00
6829;BME280;17930;48.592;8.868;2023-02-18T07:41:45;97567.19;;;10.78;100.00
6829;BME280;17930;48.592;8.868;2023-02-18T07:44:12;97560.19;;;10.88;100.00
6829;BME280;17930;48.592;8.868;2023-02-18T07:46:39;97556.09;;;11.02;100.00
6829;BME280;17930;48.592;8.868;2023-02-18T07:49:06;97551.44;;;11.14;100.00
6829;BME280;17930;48.592;8.868;2023-02-18T07:51:33;97558.22;;;11.15;100.00
6829;BME280;17930;48.592;8.868;2023-02-18T07:53:59;97551.44;;;11.14;100.00
6829;BME280;17930;48.592;8.868;2023-02-18T07:56:27;97547.56;;;11.22;100.00
6829;BME280;17930;48.592;8.868;2023-02-18T07:58:54;97557.47;;;11.15;100.00
6829;BME280;17930;48.592;8.868;2023-02-18T08:01:21;97550.38;;;11.10;100.00
6829;BME280;17930;48.592;8.868;2023-02-18T08:03:48;97561.06;;;11.09;100.00
6829;BME280;17930;48.592;8.868;2023-02-18T08:06:20;97555.38;;;11.17;100.00
6829;BME280;17930;48.592;8.868;2023-02-18T08:08:48;97553.25;;;11.14;100.00
6829;BME280;17930;48.592;8.868;2023-02-18T08:11:15;97543.88;;;11.18;100.00
6829;BME280;17930;48.592;8.868;2023-02-18T08:13:43;97542.63;;;11.30;100.00
6829;BME280;17930;48.592;8.868;2023-02-18T08:16:10;97547.88;;;11.45;100.00
6829;BME280;17930;48.592;8.868;2023-02-18T08:18:37;97541.91;;;11.49;100.00
6829;BME280;17930;48.592;8.868;2023-02-18T08:21:04;97551.06;;;11.57;100.00
6829;BME280;17930;48.592;8.868;2023-02-18T08:23:31;97546.13;;;11.65;100.00
6829;BME280;17930;48.592;8.868;2023-02-18T08:25:58;97538.28;;;11.65;100.00
6829;BME280;17930;48.592;8.868;2023-02-18T08:28:24;97544.59;;;11.64;100.00
6829;BME280;17930;48.592;8.868;2023-02-18T08:30:54;97541.44;;;11.67;100.00
6829;BME280;17930;48.592;8.868;2023-02-18T08:33:21;97548.75;;;11.75;100.00
6829;BME280;17930;48.592;8.868;2023-02-18T08:35:50;97537.31;;;11.81;100.00
6829;BME280;17930;48.592;8.868;2023-02-18T08:38:17;97533.38;;;11.93;100.00
6829;BME280;17930;48.592;8.868;2023-02-18T08:40:44;97538.34;;;12.00;100.00
6829;BME280;17930;48.592;8.868;2023-02-18T08:43:12;97542.03;;;12.04;100.00
6829;BME280;17930;48.592;8.868;2023-02-18T08:45:40;97543.09;;;12.08;100.00
6829;BME280;17930;48.592;8.868;2023-02-18T08:48:10;97543.09;;;12.08;100.00
6829;BME280;17930;48.592;8.868;2023-02-18T08:50:39;97550.41;;;12.11;100.00
6829;BME280;17930;48.592;8.868;2023-02-18T08:53:06;97548.81;;;12.15;100.00
6829;BME280;17930;48.592;8.868;2023-02-18T08:55:34;97538.63;;;12.18;100.00
6829;BME280;17930;48.592;8.868;2023-02-18T08:58:03;97540.97;;;12.20;100.00
6829;BME280;17930;48.592;8.868;2023-02-18T09:00:31;97532.09;;;12.21;100.00
6829;BME280;17930;48.592;8.868;2023-02-18T09:02:58;97533.66;;;12.22;100.00
6829;BME280;17930;48.592;8.868;2023-02-18T09:05:27;97544.63;;;12.19;100.00
6829;BME280;17930;48.592;8.868;2023-02-18T09:07:54;97525.81;;;12.27;100.00
6829;BME280;17930;48.592;8.868;2023-02-18T09:10:21;97526.59;;;12.27;100.00
6829;BME280;17930;48.592;8.868;2023-02-18T09:12:48;97527.88;;;12.25;100.00
6829;BME280;17930;48.592;8.868;2023-02-18T09:15:15;97512.72;;;12.31;100.00
6829;BME280;17930;48.592;8.868;2023-02-18T09:17:42;97508.53;;;12.35;100.00
6829;BME280;17930;48.592;8.868;2023-02-18T09:20:09;97521.09;;;12.33;100.00
6829;BME280;17930;48.592;8.868;2023-02-18T09:22:37;97500.69;;;12.40;100.00
6829;BME280;17930;48.592;8.868;2023-02-18T09:25:05;97503.25;;;12.55;100.00
6829;BME280;17930;48.592;8.868;2023-02-18T09:27:32;97499.31;;;12.63;100.00
6829;BME280;17930;48.592;8.868;2023-02-18T09:29:59;97492.78;;;12.55;100.00
6829;BME280;17930;48.592;8.868;2023-02-18T09:32:26;97486.97;;;12.78;100.00
6829;BME280;17930;48.592;8.868;2023-02-18T09:34:52;97493.81;;;12.69;100.00
6829;BME280;17930;48.592;8.868;2023-02-18T09:37:19;97485.69;;;12.76;100.00
6829;BME280;17930;48.592;8.868;2023-02-18T09:39:47;97485.13;;;12.93;100.00
6829;BME280;17930;48.592;8.868;2023-02-18T09:42:17;97476.94;;;13.05;100.00
6829;BME280;17930;48.592;8.868;2023-02-18T09:44:48;97468.13;;;12.86;100.00
6829;BME280;17930;48.592;8.868;2023-02-18T09:47:18;97466.56;;;12.85;100.00
6829;BME280;17930;48.592;8.868;2023-02-18T09:49:50;97469.72;;;12.77;100.00
6829;BME280;17930;48.592;8.868;2023-02-18T09:52:20;97461.31;;;12.85;100.00
6829;BME280;17930;48.592;8.868;2023-02-18T09:54:50;97463.34;;;12.98;100.00
6829;BME280;17930;48.592;8.868;2023-02-18T09:57:23;97453.38;;;13.10;100.00
6829;BME280;17930;48.592;8.868;2023-02-18T09:59:56;97459.75;;;13.42;100.00
6829;BME280;17930;48.592;8.868;2023-02-18T10:02:23;97471.06;;;13.32;100.00
6829;BME280;17930;48.592;8.868;2023-02-18T10:04:51;97471.31;;;13.31;100.00
6829;BME280;17930;48.592;8.868;2023-02-18T10:07:22;97477.41;;;13.22;100.00
6829;BME280;17930;48.592;8.868;2023-02-18T10:09:53;97483.22;;;13.09;100.00
6829;BME280;17930;48.592;8.868;2023-02-18T10:12:22;97497.94;;;13.00;100.00
6829;BME280;17930;48.592;8.868;2023-02-18T10:14:51;97479.66;;;12.90;100.00
6829;BME280;17930;48.592;8.868;2023-02-18T10:17:20;97491.16;;;12.94;100.00
6829;BME280;17930;48.592;8.868;2023-02-18T10:19:48;97487.25;;;12.81;100.00
6829;BME280;17930;48.592;8.868;2023-02-18T10:22:17;97481.22;;;12.86;100.00
6829;BME280;17930;48.592;8.868;2023-02-18T10:24:47;97482.25;;;12.85;100.00
6829;BME280;17930;48.592;8.868;2023-02-18T10:27:20;97489.59;;;12.88;100.00
6829;BME280;17930;48.592;8.868;2023-02-18T10:29:49;97473.38;;;12.86;100.00
6829;BME280;17930;48.592;8.868;2023-02-18T10:32:22;97471.75;;;12.95;100.00
6829;BME280;17930;48.592;8.868;2023-02-18T10:34:53;97467.84;;;12.92;100.00
6829;BME280;17930;48.592;8.868;2023-02-18T10:37:41;97466.56;;;12.90;100.00
6829;BME280;17930;48.592;8.868;2023-02-18T10:40:16;97475.19;;;12.90;100.00
6829;BME280;17930;48.592;8.868;2023-02-18T10:42:58;97473.88;;;12.88;100.00
6829;BME280;17930;48.592;8.868;2023-02-18T10:45:35;97484.88;;;12.90;100.00
6829;BME280;17930;48.592;8.868;2023-02-18T10:48:27;97483.56;;;12.92;100.00
6829;BME280;17930;48.592;8.868;2023-02-18T10:50:58;97486.16;;;12.97;100.00
6829;BME280;17930;48.592;8.868;2023-02-18T10:53:32;97501.63;;;12.94;100.00
6829;BME280;17930;48.592;8.868;2023-02-18T10:55:59;97501.06;;;13.02;100.00
6829;BME280;17930;48.592;8.868;2023-02-18T10:58:31;97501.38;;;12.90;100.00
6829;BME280;17930;48.592;8.868;2023-02-18T11:00:58;97500.56;;;12.95;100.00
6829;BME280;17930;48.592;8.868;2023-02-18T11:03:39;97506.34;;;12.97;100.00
6829;BME280;17930;48.592;8.868;2023-02-18T11:06:14;97493.69;;;13.09;100.00
6829;BME280;17930;48.592;8.868;2023-02-18T11:08:44;97485.28;;;13.17;100.00
6829;BME280;17930;48.592;8.868;2023-02-18T11:11:15;97485.28;;;13.17;100.00
6829;BME280;17930;48.592;8.868;2023-02-18T11:13:51;97477.88;;;13.33;100.00
6829;BME280;17930;48.592;8.868;2023-02-18T11:16:21;97470.94;;;13.47;100.00
6829;BME280;17930;48.592;8.868;2023-02-18T11:18:49;97465.69;;;13.52;100.00
6829;BME280;17930;48.592;8.868;2023-02-18T11:21:25;97466.13;;;13.64;100.00
6829;BME280;17930;48.592;8.868;2023-02-18T11:23:56;97458.59;;;13.53;100.00
6829;BME280;17930;48.592;8.868;2023-02-18T11:26:26;97452.66;;;13.42;100.00
6829;BME280;17930;48.592;8.868;2023-02-18T11:28:59;97443.22;;;13.41;100.00
6829;BME280;17930;48.592;8.868;2023-02-18T11:31:38;97446.56;;;13.52;100.00
6829;BME280;17930;48.592;8.868;2023-02-18T11:34:14;97446.63;;;13.42;100.00
6829;BME280;17930;48.592;8.868;2023-02-18T11:36:42;97443.00;;;13.33;100.00
6829;BME280;17930;48.592;8.868;2023-02-18T11:39:17;97454.84;;;13.26;100.00
6829;BME280;17930;48.592;8.868;2023-02-18T11:41:46;97450.09;;;13.28;100.00
6829;BME280;17930;48.592;8.868;2023-02-18T11:44:21;97434.84;;;13.39;100.00
6829;BME280;17930;48.592;8.868;2023-02-18T11:46:56;97429.84;;;13.43;100.00
6829;BME280;17930;48.592;8.868;2023-02-18T11:49:24;97425.06;;;13.55;100.00
6829;BME280;17930;48.592;8.868;2023-02-18T11:51:51;97412.78;;;13.50;100.00
6829;BME280;17930;48.592;8.868;2023-02-18T11:54:24;97427.94;;;13.53;100.00
6829;BME280;17930;48.592;8.868;2023-02-18T11:56:56;97412.38;;;13.67;100.00
6829;BME280;17930;48.592;8.868;2023-02-18T11:59:25;97407.28;;;13.80;100.00
6829;BME280;17930;48.592;8.868;2023-02-18T12:01:57;97400.13;;;13.85;100.00
6829;BME280;17930;48.592;8.868;2023-02-18T12:04:30;97407.47;;;13.88;100.00
6829;BME280;17930;48.592;8.868;2023-02-18T12:07:11;97393.63;;;13.83;100.00
6829;BME280;17930;48.592;8.868;2023-02-18T12:09:43;97400.28;;;13.99;100.00
6829;BME280;17930;48.592;8.868;2023-02-18T12:12:15;97398.00;;;14.21;100.00
6829;BME280;17930;48.592;8.868;2023-02-18T12:14:44;97400.59;;;14.26;100.00
6829;BME280;17930;48.592;8.868;2023-02-18T12:17:25;97399.53;;;14.27;100.00
6829;BME280;17930;48.592;8.868;2023-02-18T12:20:14;97400.47;;;14.35;100.00
6829;BME280;17930;48.592;8.868;2023-02-18T12:22:49;97410.75;;;14.55;100.00
6829;BME280;17930;48.592;8.868;2023-02-18T12:25:28;97421.94;;;14.42;100.00
6829;BME280;17930;48.592;8.868;2023-02-18T12:28:11;97405.44;;;14.60;100.00
6829;BME280;17930;48.592;8.868;2023-02-18T12:30:59;97394.22;;;14.55;100.00
6829;BME280;17930;48.592;8.868;2023-02-18T12:33:35;97411.53;;;14.33;100.00
6829;BME280;17930;48.592;8.868;2023-02-18T12:36:12;97398.56;;;14.18;100.00
6829;BME280;17930;48.592;8.868;2023-02-18T12:38:52;97393.41;;;14.08;100.00
6829;BME280;17930;48.592;8.868;2023-02-18T12:41:41;97382.28;;;14.44;100.00
6829;BME280;17930;48.592;8.868;2023-02-18T12:44:28;97396.50;;;14.61;100.00
6829;BME280;17930;48.592;8.868;2023-02-18T12:47:30;97390.31;;;14.52;100.00
6829;BME280;17930;48.592;8.868;2023-02-18T12:53:29;97390.41;;;14.66;100.00
6829;BME280;17930;48.592;8.868;2023-02-18T12:56:17;97382.16;;;14.54;100.00
6829;BME280;17930;48.592;8.868;2023-02-18T12:58:59;97382.47;;;14.47;100.00
6829;BME280;17930;48.592;8.868;2023-02-18T13:01:34;97383.28;;;14.25;100.00
6829;BME280;17930;48.592;8.868;2023-02-18T13:04:24;97398.06;;;14.16;100.00
6829;BME280;17930;48.592;8.868;2023-02-18T13:07:18;97387.50;;;14.21;100.00
6829;BME280;17930;48.592;8.868;2023-02-18T13:10:03;97386.31;;;14.36;100.00
6829;BME280;17930;48.592;8.868;2023-02-18T13:12:39;97381.06;;;14.36;100.00
6829;BME280;17930;48.592;8.868;2023-02-18T13:15:15;97386.41;;;14.27;100.00
6829;BME280;17930;48.592;8.868;2023-02-18T13:17:44;97385.97;;;14.20;100.00
6829;BME280;17930;48.592;8.868;2023-02-18T13:20:20;97382.22;;;14.26;100.00
6829;BME280;17930;48.592;8.868;2023-02-18T13:22:48;97371.72;;;14.26;100.00
6829;BME280;17930;48.592;8.868;2023-02-18T13:25:18;97377.13;;;14.11;100.00
6829;BME280;17930;48.592;8.868;2023-02-18T13:27:52;97383.94;;;14.12;100.00
6829;BME280;17930;48.592;8.868;2023-02-18T13:30:22;97383.16;;;14.11;100.00